sensor_id;sensor_type;location;lat;lon;timestamp;temperature;humidity
35363;DHT22;21463;47.480;8.214;2023-05-10T00:00:27;21.50;57.90
35363;DHT22;21463;47.480;8.214;2023-05-10T00:01:30;21.50;57.90
35363;DHT22;21463;47.480;8.214;2023-05-10T00:02:43;21.50;57.90
35363;DHT22;21463;47.480;8.214;2023-05-10T00:04:02;21.50;57.90
35363;DHT22;21463;47.480;8.214;2023-05-10T00:05:08;21.50;57.90
35363;DHT22;21463;47.480;8.214;2023-05-10T00:06:15;21.50;57.90
35363;DHT22;21463;47.480;8.214;2023-05-10T00:07:33;21.50;57.90
35363;DHT22;21463;47.480;8.214;2023-05-10T00:08:50;21.50;57.90
35363;DHT22;21463;47.480;8.214;2023-05-10T00:09:54;21.50;57.80
35363;DHT22;21463;47.480;8.214;2023-05-10T00:10:59;21.50;57.80
35363;DHT22;21463;47.480;8.214;2023-05-10T00:12:13;21.50;57.80
35363;DHT22;21463;47.480;8.214;2023-05-10T00:13:16;21.60;57.90
35363;DHT22;21463;47.480;8.214;2023-05-10T00:14:19;21.60;57.90
35363;DHT22;21463;47.480;8.214;2023-05-10T00:15:21;21.50;57.80
35363;DHT22;21463;47.480;8.214;2023-05-10T00:16:25;21.50;57.80
35363;DHT22;21463;47.480;8.214;2023-05-10T00:17:31;21.50;57.80
35363;DHT22;21463;47.480;8.214;2023-05-10T00:18:45;21.50;57.70
35363;DHT22;21463;47.480;8.214;2023-05-10T00:19:48;21.50;57.70
35363;DHT22;21463;47.480;8.214;2023-05-10T00:20:55;21.50;57.70
35363;DHT22;21463;47.480;8.214;2023-05-10T00:21:57;21.50;57.70
35363;DHT22;21463;47.480;8.214;2023-05-10T00:23:03;21.40;57.70
35363;DHT22;21463;47.480;8.214;2023-05-10T00:24:12;21.60;57.70
35363;DHT22;21463;47.480;8.214;2023-05-10T00:25:31;21.60;57.70
35363;DHT22;21463;47.480;8.214;2023-05-10T00:26:38;21.50;57.70
35363;DHT22;21463;47.480;8.214;2023-05-10T00:27:50;21.50;57.70
35363;DHT22;21463;47.480;8.214;2023-05-10T00:28:54;21.50;57.70
35363;DHT22;21463;47.480;8.214;2023-05-10T00:29:58;21.20;57.40
35363;DHT22;21463;47.480;8.214;2023-05-10T00:31:06;21.50;57.60
35363;DHT22;21463;47.480;8.214;2023-05-10T00:32:14;21.50;57.60
35363;DHT22;21463;47.480;8.214;2023-05-10T00:33:20;21.50;57.60
35363;DHT22;21463;47.480;8.214;2023-05-10T00:34:26;21.50;57.60
35363;DHT22;21463;47.480;8.214;2023-05-10T00:35:34;21.50;57.60
35363;DHT22;21463;47.480;8.214;2023-05-10T00:36:55;21.50;57.60
35363;DHT22;21463;47.480;8.214;2023-05-10T00:38:00;21.50;57.50
35363;DHT22;21463;47.480;8.214;2023-05-10T00:39:04;21.50;57.50
35363;DHT22;21463;47.480;8.214;2023-05-10T00:40:07;21.50;57.50
35363;DHT22;21463;47.480;8.214;2023-05-10T00:41:13;21.50;57.50
35363;DHT22;21463;47.480;8.214;2023-05-10T00:42:17;21.50;57.50
35363;DHT22;21463;47.480;8.214;2023-05-10T00:43:21;21.50;57.50
35363;DHT22;21463;47.480;8.214;2023-05-10T00:44:24;21.40;57.40
35363;DHT22;21463;47.480;8.214;2023-05-10T00:45:47;21.50;57.50
35363;DHT22;21463;47.480;8.214;2023-05-10T00:46:53;21.50;57.40
35363;DHT22;21463;47.480;8.214;2023-05-10T00:47:57;21.50;57.40
35363;DHT22;21463;47.480;8.214;2023-05-10T00:49:03;21.40;57.30
35363;DHT22;21463;47.480;8.214;2023-05-10T00:50:07;21.50;57.40
35363;DHT22;21463;47.480;8.214;2023-05-10T00:51:11;21.50;57.40
35363;DHT22;21463;47.480;8.214;2023-05-10T00:52:13;21.40;57.30
35363;DHT22;21463;47.480;8.214;2023-05-10T00:53:16;21.40;57.30
35363;DHT22;21463;47.480;8.214;2023-05-10T00:54:20;21.40;57.30
35363;DHT22;21463;47.480;8.214;2023-05-10T00:55:38;21.40;57.30
35363;DHT22;21463;47.480;8.214;2023-05-10T00:56:40;21.50;57.30
35363;DHT22;21463;47.480;8.214;2023-05-10T00:57:43;21.40;57.30
35363;DHT22;21463;47.480;8.214;2023-05-10T00:58:47;21.50;57.30
35363;DHT22;21463;47.480;8.214;2023-05-10T00:59:55;21.40;57.20
35363;DHT22;21463;47.480;8.214;2023-05-10T01:01:19;21.50;57.30
35363;DHT22;21463;47.480;8.214;2023-05-10T01:02:26;21.50;57.30
35363;DHT22;21463;47.480;8.214;2023-05-10T01:03:33;21.50;57.20
35363;DHT22;21463;47.480;8.214;2023-05-10T01:04:52;21.40;57.20
35363;DHT22;21463;47.480;8.214;2023-05-10T01:05:56;21.40;57.10
35363;DHT22;21463;47.480;8.214;2023-05-10T01:07:01;21.40;57.10
35363;DHT22;21463;47.480;8.214;2023-05-10T01:08:06;21.40;57.10
35363;DHT22;21463;47.480;8.214;2023-05-10T01:09:16;21.40;57.10
35363;DHT22;21463;47.480;8.214;2023-05-10T01:10:21;21.40;57.10
35363;DHT22;21463;47.480;8.214;2023-05-10T01:11:24;21.40;57.10
35363;DHT22;21463;47.480;8.214;2023-05-10T01:12:28;21.40;57.10
35363;DHT22;21463;47.480;8.214;2023-05-10T01:13:34;21.40;57.10
35363;DHT22;21463;47.480;8.214;2023-05-10T01:14:42;21.40;57.00
35363;DHT22;21463;47.480;8.214;2023-05-10T01:15:48;21.40;57.00
35363;DHT22;21463;47.480;8.214;2023-05-10T01:16:54;21.40;57.00
35363;DHT22;21463;47.480;8.214;2023-05-10T01:17:58;21.40;57.00
35363;DHT22;21463;47.480;8.214;2023-05-10T01:19:04;21.40;57.00
35363;DHT22;21463;47.480;8.214;2023-05-10T01:20:17;21.40;57.00
35363;DHT22;21463;47.480;8.214;2023-05-10T01:21:27;21.40;56.90
35363;DHT22;21463;47.480;8.214;2023-05-10T01:24:14;21.50;57.00
35363;DHT22;21463;47.480;8.214;2023-05-10T01:29:35;21.50;56.90
35363;DHT22;21463;47.480;8.214;2023-05-10T01:32:25;21.40;56.80
35363;DHT22;21463;47.480;8.214;2023-05-10T01:33:35;21.40;56.80
35363;DHT22;21463;47.480;8.214;2023-05-10T01:34:46;21.40;56.80
35363;DHT22;21463;47.480;8.214;2023-05-10T01:37:17;21.60;56.80
35363;DHT22;21463;47.480;8.214;2023-05-10T01:39:36;21.50;56.70
35363;DHT22;21463;47.480;8.214;2023-05-10T01:40:46;21.40;56.70
35363;DHT22;21463;47.480;8.214;2023-05-10T01:41:54;21.40;56.70
35363;DHT22;21463;47.480;8.214;2023-05-10T01:43:28;21.40;56.70
35363;DHT22;21463;47.480;8.214;2023-05-10T01:44:37;21.40;56.60
35363;DHT22;21463;47.480;8.214;2023-05-10T01:47:14;21.40;56.60
35363;DHT22;21463;47.480;8.214;2023-05-10T01:48:21;21.40;56.60
35363;DHT22;21463;47.480;8.214;2023-05-10T01:49:47;21.40;56.60
35363;DHT22;21463;47.480;8.214;2023-05-10T01:50:52;21.40;56.60
35363;DHT22;21463;47.480;8.214;2023-05-10T01:52:10;21.40;56.60
35363;DHT22;21463;47.480;8.214;2023-05-10T01:53:17;21.40;56.50
35363;DHT22;21463;47.480;8.214;2023-05-10T01:54:21;21.30;56.50
35363;DHT22;21463;47.480;8.214;2023-05-10T01:55:30;21.40;56.50
35363;DHT22;21463;47.480;8.214;2023-05-10T01:56:37;21.30;56.40
35363;DHT22;21463;47.480;8.214;2023-05-10T01:57:43;21.40;56.50
35363;DHT22;21463;47.480;8.214;2023-05-10T01:58:47;21.30;56.40
35363;DHT22;21463;47.480;8.214;2023-05-10T02:00:02;21.40;56.40
35363;DHT22;21463;47.480;8.214;2023-05-10T02:01:15;21.40;56.40
35363;DHT22;21463;47.480;8.214;2023-05-10T02:02:20;21.40;56.40
35363;DHT22;21463;47.480;8.214;2023-05-10T02:03:28;21.30;56.30
35363;DHT22;21463;47.480;8.214;2023-05-10T02:04:35;21.40;56.40
35363;DHT22;21463;47.480;8.214;2023-05-10T02:05:40;21.30;56.30
35363;DHT22;21463;47.480;8.214;2023-05-10T02:06:45;21.40;56.40
35363;DHT22;21463;47.480;8.214;2023-05-10T02:07:50;21.60;56.50
35363;DHT22;21463;47.480;8.214;2023-05-10T02:08:55;21.40;56.40
35363;DHT22;21463;47.480;8.214;2023-05-10T02:10:01;21.30;56.30
35363;DHT22;21463;47.480;8.214;2023-05-10T02:11:04;21.30;56.30
35363;DHT22;21463;47.480;8.214;2023-05-10T02:12:08;21.40;56.30
35363;DHT22;21463;47.480;8.214;2023-05-10T02:13:28;21.30;56.20
35363;DHT22;21463;47.480;8.214;2023-05-10T02:14:34;21.30;56.20
35363;DHT22;21463;47.480;8.214;2023-05-10T02:15:40;21.30;56.20
35363;DHT22;21463;47.480;8.214;2023-05-10T02:16:45;21.40;56.20
35363;DHT22;21463;47.480;8.214;2023-05-10T02:17:52;21.40;56.20
35363;DHT22;21463;47.480;8.214;2023-05-10T02:18:58;21.40;56.20
35363;DHT22;21463;47.480;8.214;2023-05-10T02:20:08;21.30;56.20
35363;DHT22;21463;47.480;8.214;2023-05-10T02:21:13;21.30;56.10
35363;DHT22;21463;47.480;8.214;2023-05-10T02:22:19;21.30;56.70
35363;DHT22;21463;47.480;8.214;2023-05-10T02:23:24;21.40;56.20
35363;DHT22;21463;47.480;8.214;2023-05-10T02:24:36;21.30;56.20
35363;DHT22;21463;47.480;8.214;2023-05-10T02:25:40;21.30;56.10
35363;DHT22;21463;47.480;8.214;2023-05-10T02:26:45;21.40;56.20
35363;DHT22;21463;47.480;8.214;2023-05-10T02:27:55;21.40;56.20
35363;DHT22;21463;47.480;8.214;2023-05-10T02:29:02;21.30;56.20
35363;DHT22;21463;47.480;8.214;2023-05-10T02:30:07;21.30;56.10
35363;DHT22;21463;47.480;8.214;2023-05-10T02:31:12;21.30;56.10
35363;DHT22;21463;47.480;8.214;2023-05-10T02:32:32;21.30;56.20
35363;DHT22;21463;47.480;8.214;2023-05-10T02:33:39;21.30;56.10
35363;DHT22;21463;47.480;8.214;2023-05-10T02:34:43;21.40;56.20
35363;DHT22;21463;47.480;8.214;2023-05-10T02:35:50;21.30;56.10
35363;DHT22;21463;47.480;8.214;2023-05-10T02:36:54;21.30;56.10
35363;DHT22;21463;47.480;8.214;2023-05-10T02:38:20;21.30;56.10
35363;DHT22;21463;47.480;8.214;2023-05-10T02:39:24;21.40;56.20
35363;DHT22;21463;47.480;8.214;2023-05-10T02:40:32;21.30;56.10
35363;DHT22;21463;47.480;8.214;2023-05-10T02:41:35;21.30;56.10
35363;DHT22;21463;47.480;8.214;2023-05-10T02:42:41;21.30;56.10
35363;DHT22;21463;47.480;8.214;2023-05-10T02:43:44;21.30;56.10
35363;DHT22;21463;47.480;8.214;2023-05-10T02:44:48;21.30;56.10
35363;DHT22;21463;47.480;8.214;2023-05-10T02:45:56;21.30;56.00
35363;DHT22;21463;47.480;8.214;2023-05-10T02:46:59;21.30;56.00
35363;DHT22;21463;47.480;8.214;2023-05-10T02:48:04;21.40;56.10
35363;DHT22;21463;47.480;8.214;2023-05-10T02:49:10;21.30;56.00
35363;DHT22;21463;47.480;8.214;2023-05-10T02:50:14;21.30;56.00
35363;DHT22;21463;47.480;8.214;2023-05-10T02:51:18;21.30;56.00
35363;DHT22;21463;47.480;8.214;2023-05-10T02:52:46;21.30;56.00
35363;DHT22;21463;47.480;8.214;2023-05-10T02:53:57;21.30;56.00
35363;DHT22;21463;47.480;8.214;2023-05-10T02:55:38;21.30;56.00
35363;DHT22;21463;47.480;8.214;2023-05-10T02:56:50;21.30;56.00
35363;DHT22;21463;47.480;8.214;2023-05-10T02:57:57;21.30;56.00
35363;DHT22;21463;47.480;8.214;2023-05-10T02:59:08;21.30;56.00
35363;DHT22;21463;47.480;8.214;2023-05-10T03:00:15;21.30;55.90
35363;DHT22;21463;47.480;8.214;2023-05-10T03:01:19;21.30;56.00
35363;DHT22;21463;47.480;8.214;2023-05-10T03:02:24;21.30;55.90
35363;DHT22;21463;47.480;8.214;2023-05-10T03:03:43;21.30;55.90
35363;DHT22;21463;47.480;8.214;2023-05-10T03:04:49;21.40;56.00
35363;DHT22;21463;47.480;8.214;2023-05-10T03:05:53;21.40;56.00
35363;DHT22;21463;47.480;8.214;2023-05-10T03:06:58;21.30;55.90
35363;DHT22;21463;47.480;8.214;2023-05-10T03:08:05;21.30;55.90
35363;DHT22;21463;47.480;8.214;2023-05-10T03:09:09;21.30;55.90
35363;DHT22;21463;47.480;8.214;2023-05-10T03:10:14;21.20;55.80
35363;DHT22;21463;47.480;8.214;2023-05-10T03:11:24;21.20;55.80
35363;DHT22;21463;47.480;8.214;2023-05-10T03:14:42;21.40;55.90
35363;DHT22;21463;47.480;8.214;2023-05-10T03:16:58;21.30;55.90
35363;DHT22;21463;47.480;8.214;2023-05-10T03:18:15;21.30;55.90
35363;DHT22;21463;47.480;8.214;2023-05-10T03:19:24;21.30;55.90
35363;DHT22;21463;47.480;8.214;2023-05-10T03:20:36;21.30;55.90
35363;DHT22;21463;47.480;8.214;2023-05-10T03:21:42;21.30;55.90
35363;DHT22;21463;47.480;8.214;2023-05-10T03:22:49;21.30;55.90
35363;DHT22;21463;47.480;8.214;2023-05-10T03:24:05;21.30;55.80
35363;DHT22;21463;47.480;8.214;2023-05-10T03:25:24;21.30;55.80
35363;DHT22;21463;47.480;8.214;2023-05-10T03:26:28;21.30;55.80
35363;DHT22;21463;47.480;8.214;2023-05-10T03:27:40;21.30;55.80
35363;DHT22;21463;47.480;8.214;2023-05-10T03:28:46;21.30;55.80
35363;DHT22;21463;47.480;8.214;2023-05-10T03:29:52;21.30;55.80
35363;DHT22;21463;47.480;8.214;2023-05-10T03:30:56;21.30;55.80
35363;DHT22;21463;47.480;8.214;2023-05-10T03:32:04;21.30;55.90
35363;DHT22;21463;47.480;8.214;2023-05-10T03:33:10;21.30;55.80
35363;DHT22;21463;47.480;8.214;2023-05-10T03:34:29;21.30;55.80
35363;DHT22;21463;47.480;8.214;2023-05-10T03:35:47;21.30;55.80
35363;DHT22;21463;47.480;8.214;2023-05-10T03:36:53;21.30;55.80
35363;DHT22;21463;47.480;8.214;2023-05-10T03:38:20;21.30;55.80
35363;DHT22;21463;47.480;8.214;2023-05-10T03:39:38;21.30;55.80
35363;DHT22;21463;47.480;8.214;2023-05-10T03:40:43;21.30;55.80
35363;DHT22;21463;47.480;8.214;2023-05-10T03:41:49;21.30;55.80
35363;DHT22;21463;47.480;8.214;2023-05-10T03:42:53;21.30;55.80
35363;DHT22;21463;47.480;8.214;2023-05-10T03:43:56;21.20;55.70
35363;DHT22;21463;47.480;8.214;2023-05-10T03:45:05;21.30;55.80
35363;DHT22;21463;47.480;8.214;2023-05-10T03:46:24;21.30;55.80
35363;DHT22;21463;47.480;8.214;2023-05-10T03:47:36;21.20;55.70
35363;DHT22;21463;47.480;8.214;2023-05-10T03:48:43;21.30;55.80
35363;DHT22;21463;47.480;8.214;2023-05-10T03:50:10;21.30;55.70
35363;DHT22;21463;47.480;8.214;2023-05-10T03:51:14;21.30;55.80
35363;DHT22;21463;47.480;8.214;2023-05-10T03:52:55;21.50;55.90
35363;DHT22;21463;47.480;8.214;2023-05-10T03:53:59;21.30;55.80
35363;DHT22;21463;47.480;8.214;2023-05-10T03:55:03;21.30;55.80
35363;DHT22;21463;47.480;8.214;2023-05-10T03:56:20;21.30;55.70
35363;DHT22;21463;47.480;8.214;2023-05-10T03:57:23;21.20;55.70
35363;DHT22;21463;47.480;8.214;2023-05-10T03:58:27;21.30;55.70
35363;DHT22;21463;47.480;8.214;2023-05-10T03:59:39;21.30;55.70
35363;DHT22;21463;47.480;8.214;2023-05-10T04:00:44;21.30;55.70
35363;DHT22;21463;47.480;8.214;2023-05-10T04:01:54;21.30;55.70
35363;DHT22;21463;47.480;8.214;2023-05-10T04:02:59;21.30;55.70
35363;DHT22;21463;47.480;8.214;2023-05-10T04:04:04;21.30;55.70
35363;DHT22;21463;47.480;8.214;2023-05-10T04:05:10;21.30;55.80
35363;DHT22;21463;47.480;8.214;2023-05-10T04:06:14;21.30;55.80
35363;DHT22;21463;47.480;8.214;2023-05-10T04:07:18;21.20;55.60
35363;DHT22;21463;47.480;8.214;2023-05-10T04:08:37;21.20;55.70
35363;DHT22;21463;47.480;8.214;2023-05-10T04:09:44;21.20;55.60
35363;DHT22;21463;47.480;8.214;2023-05-10T04:11:09;21.20;55.60
35363;DHT22;21463;47.480;8.214;2023-05-10T04:12:12;21.30;55.70
35363;DHT22;21463;47.480;8.214;2023-05-10T04:13:22;21.30;55.70
35363;DHT22;21463;47.480;8.214;2023-05-10T04:14:29;21.30;55.70
35363;DHT22;21463;47.480;8.214;2023-05-10T04:15:35;21.30;55.70
35363;DHT22;21463;47.480;8.214;2023-05-10T04:16:40;21.20;55.60
35363;DHT22;21463;47.480;8.214;2023-05-10T04:18:04;21.30;55.70
35363;DHT22;21463;47.480;8.214;2023-05-10T04:19:12;21.20;55.70
35363;DHT22;21463;47.480;8.214;2023-05-10T04:20:44;21.20;55.60
35363;DHT22;21463;47.480;8.214;2023-05-10T04:21:49;21.30;55.70
35363;DHT22;21463;47.480;8.214;2023-05-10T04:22:58;21.20;55.60
35363;DHT22;21463;47.480;8.214;2023-05-10T04:24:03;21.30;55.70
35363;DHT22;21463;47.480;8.214;2023-05-10T04:25:10;21.20;55.60
35363;DHT22;21463;47.480;8.214;2023-05-10T04:26:17;21.30;55.70
35363;DHT22;21463;47.480;8.214;2023-05-10T04:27:20;21.30;55.70
35363;DHT22;21463;47.480;8.214;2023-05-10T04:28:35;21.20;55.60
35363;DHT22;21463;47.480;8.214;2023-05-10T04:29:48;21.20;55.60
35363;DHT22;21463;47.480;8.214;2023-05-10T04:31:19;21.30;55.70
35363;DHT22;21463;47.480;8.214;2023-05-10T04:32:22;21.30;55.70
35363;DHT22;21463;47.480;8.214;2023-05-10T04:33:24;21.20;55.60
35363;DHT22;21463;47.480;8.214;2023-05-10T04:34:26;21.20;55.60
35363;DHT22;21463;47.480;8.214;2023-05-10T04:35:28;21.30;55.70
35363;DHT22;21463;47.480;8.214;2023-05-10T04:36:31;21.20;55.60
35363;DHT22;21463;47.480;8.214;2023-05-10T04:37:34;21.20;55.60
35363;DHT22;21463;47.480;8.214;2023-05-10T04:38:36;21.30;55.70
35363;DHT22;21463;47.480;8.214;2023-05-10T04:39:39;21.20;55.60
35363;DHT22;21463;47.480;8.214;2023-05-10T04:40:43;21.30;55.60
35363;DHT22;21463;47.480;8.214;2023-05-10T04:41:45;21.20;55.60
35363;DHT22;21463;47.480;8.214;2023-05-10T04:42:48;21.20;55.60
35363;DHT22;21463;47.480;8.214;2023-05-10T04:43:50;21.30;55.60
35363;DHT22;21463;47.480;8.214;2023-05-10T04:44:52;21.30;55.60
35363;DHT22;21463;47.480;8.214;2023-05-10T04:45:56;21.20;55.50
35363;DHT22;21463;47.480;8.214;2023-05-10T04:46:58;21.30;55.60
35363;DHT22;21463;47.480;8.214;2023-05-10T04:48:01;21.30;55.60
35363;DHT22;21463;47.480;8.214;2023-05-10T04:49:03;21.30;55.70
35363;DHT22;21463;47.480;8.214;2023-05-10T04:50:08;21.20;55.60
35363;DHT22;21463;47.480;8.214;2023-05-10T04:51:11;21.30;55.80
35363;DHT22;21463;47.480;8.214;2023-05-10T04:52:17;21.30;55.80
35363;DHT22;21463;47.480;8.214;2023-05-10T04:53:22;21.20;55.80
35363;DHT22;21463;47.480;8.214;2023-05-10T04:54:39;21.30;55.90
35363;DHT22;21463;47.480;8.214;2023-05-10T04:55:41;21.20;55.80
35363;DHT22;21463;47.480;8.214;2023-05-10T04:56:45;21.30;55.90
35363;DHT22;21463;47.480;8.214;2023-05-10T04:57:47;21.30;55.90
35363;DHT22;21463;47.480;8.214;2023-05-10T04:58:51;21.30;55.90
35363;DHT22;21463;47.480;8.214;2023-05-10T04:59:54;21.30;55.90
35363;DHT22;21463;47.480;8.214;2023-05-10T05:00:57;21.30;56.00
35363;DHT22;21463;47.480;8.214;2023-05-10T05:02:00;21.30;56.00
35363;DHT22;21463;47.480;8.214;2023-05-10T05:03:03;21.20;55.90
35363;DHT22;21463;47.480;8.214;2023-05-10T05:04:06;21.20;56.00
35363;DHT22;21463;47.480;8.214;2023-05-10T05:05:09;21.20;56.00
35363;DHT22;21463;47.480;8.214;2023-05-10T05:06:12;21.20;56.00
35363;DHT22;21463;47.480;8.214;2023-05-10T05:07:14;21.30;56.10
35363;DHT22;21463;47.480;8.214;2023-05-10T05:08:16;21.30;56.10
35363;DHT22;21463;47.480;8.214;2023-05-10T05:09:20;21.20;56.10
35363;DHT22;21463;47.480;8.214;2023-05-10T05:10:22;21.30;56.10
35363;DHT22;21463;47.480;8.214;2023-05-10T05:11:25;21.30;56.10
35363;DHT22;21463;47.480;8.214;2023-05-10T05:12:28;21.20;56.00
35363;DHT22;21463;47.480;8.214;2023-05-10T05:13:30;21.20;56.10
35363;DHT22;21463;47.480;8.214;2023-05-10T05:14:34;21.30;56.10
35363;DHT22;21463;47.480;8.214;2023-05-10T05:15:36;21.30;56.10
35363;DHT22;21463;47.480;8.214;2023-05-10T05:16:39;21.20;56.60
35363;DHT22;21463;47.480;8.214;2023-05-10T05:17:43;21.20;56.10
35363;DHT22;21463;47.480;8.214;2023-05-10T05:18:45;21.20;56.10
35363;DHT22;21463;47.480;8.214;2023-05-10T05:19:48;21.30;56.10
35363;DHT22;21463;47.480;8.214;2023-05-10T05:20:50;21.30;56.10
35363;DHT22;21463;47.480;8.214;2023-05-10T05:21:53;21.20;56.10
35363;DHT22;21463;47.480;8.214;2023-05-10T05:22:55;21.30;56.10
35363;DHT22;21463;47.480;8.214;2023-05-10T05:23:58;21.20;56.10
35363;DHT22;21463;47.480;8.214;2023-05-10T05:25:02;21.20;56.10
35363;DHT22;21463;47.480;8.214;2023-05-10T05:26:05;21.20;56.10
35363;DHT22;21463;47.480;8.214;2023-05-10T05:27:08;21.20;56.10
35363;DHT22;21463;47.480;8.214;2023-05-10T05:28:10;21.20;56.10
35363;DHT22;21463;47.480;8.214;2023-05-10T05:29:13;21.20;56.10
35363;DHT22;21463;47.480;8.214;2023-05-10T05:30:20;21.30;56.10
35363;DHT22;21463;47.480;8.214;2023-05-10T05:31:24;21.20;56.10
35363;DHT22;21463;47.480;8.214;2023-05-10T05:32:28;21.20;56.10
35363;DHT22;21463;47.480;8.214;2023-05-10T05:33:30;21.30;56.20
35363;DHT22;21463;47.480;8.214;2023-05-10T05:34:32;21.30;56.10
35363;DHT22;21463;47.480;8.214;2023-05-10T05:35:39;21.30;56.10
35363;DHT22;21463;47.480;8.214;2023-05-10T05:36:42;21.30;56.20
35363;DHT22;21463;47.480;8.214;2023-05-10T05:37:44;21.20;56.10
35363;DHT22;21463;47.480;8.214;2023-05-10T05:38:47;21.30;56.10
35363;DHT22;21463;47.480;8.214;2023-05-10T05:39:50;21.20;56.10
35363;DHT22;21463;47.480;8.214;2023-05-10T05:40:52;21.20;56.10
35363;DHT22;21463;47.480;8.214;2023-05-10T05:41:54;21.20;56.10
35363;DHT22;21463;47.480;8.214;2023-05-10T05:42:56;21.20;56.10
35363;DHT22;21463;47.480;8.214;2023-05-10T05:44:00;21.20;56.10
35363;DHT22;21463;47.480;8.214;2023-05-10T05:45:02;21.30;56.10
35363;DHT22;21463;47.480;8.214;2023-05-10T05:46:06;21.20;56.10
35363;DHT22;21463;47.480;8.214;2023-05-10T05:47:10;21.20;56.10
35363;DHT22;21463;47.480;8.214;2023-05-10T05:48:12;21.20;56.10
35363;DHT22;21463;47.480;8.214;2023-05-10T05:49:15;21.30;56.20
35363;DHT22;21463;47.480;8.214;2023-05-10T05:50:18;21.30;56.10
35363;DHT22;21463;47.480;8.214;2023-05-10T05:51:23;21.30;56.10
35363;DHT22;21463;47.480;8.214;2023-05-10T05:52:25;21.20;56.10
35363;DHT22;21463;47.480;8.214;2023-05-10T05:53:27;21.30;56.10
35363;DHT22;21463;47.480;8.214;2023-05-10T05:54:30;21.20;56.10
35363;DHT22;21463;47.480;8.214;2023-05-10T05:55:55;21.20;56.00
35363;DHT22;21463;47.480;8.214;2023-05-10T05:56:59;21.20;56.00
35363;DHT22;21463;47.480;8.214;2023-05-10T05:58:02;21.20;56.00
35363;DHT22;21463;47.480;8.214;2023-05-10T05:59:05;21.20;56.00
35363;DHT22;21463;47.480;8.214;2023-05-10T06:00:13;21.30;56.00
35363;DHT22;21463;47.480;8.214;2023-05-10T06:01:18;21.20;56.00
35363;DHT22;21463;47.480;8.214;2023-05-10T06:02:21;21.20;56.00
35363;DHT22;21463;47.480;8.214;2023-05-10T06:03:24;21.20;56.00
35363;DHT22;21463;47.480;8.214;2023-05-10T06:04:26;21.30;56.00
35363;DHT22;21463;47.480;8.214;2023-05-10T06:05:29;21.30;56.00
35363;DHT22;21463;47.480;8.214;2023-05-10T06:06:31;21.20;55.90
35363;DHT22;21463;47.480;8.214;2023-05-10T06:07:34;21.20;55.90
35363;DHT22;21463;47.480;8.214;2023-05-10T06:08:37;21.30;55.90
35363;DHT22;21463;47.480;8.214;2023-05-10T06:09:39;21.20;55.90
35363;DHT22;21463;47.480;8.214;2023-05-10T06:10:42;21.20;55.90
35363;DHT22;21463;47.480;8.214;2023-05-10T06:11:44;21.30;55.90
35363;DHT22;21463;47.480;8.214;2023-05-10T06:12:47;21.20;55.80
35363;DHT22;21463;47.480;8.214;2023-05-10T06:13:51;21.20;55.80
35363;DHT22;21463;47.480;8.214;2023-05-10T06:14:54;21.20;55.80
35363;DHT22;21463;47.480;8.214;2023-05-10T06:15:56;21.20;55.80
35363;DHT22;21463;47.480;8.214;2023-05-10T06:16:59;21.20;55.80
35363;DHT22;21463;47.480;8.214;2023-05-10T06:18:02;21.20;55.80
35363;DHT22;21463;47.480;8.214;2023-05-10T06:19:05;21.20;55.80
35363;DHT22;21463;47.480;8.214;2023-05-10T06:20:13;21.20;55.80
35363;DHT22;21463;47.480;8.214;2023-05-10T06:21:17;21.20;55.80
35363;DHT22;21463;47.480;8.214;2023-05-10T06:22:19;21.20;55.80
35363;DHT22;21463;47.480;8.214;2023-05-10T06:23:24;21.20;55.70
35363;DHT22;21463;47.480;8.214;2023-05-10T06:24:28;21.30;55.80
35363;DHT22;21463;47.480;8.214;2023-05-10T06:25:31;21.20;55.70
35363;DHT22;21463;47.480;8.214;2023-05-10T06:26:33;21.30;55.80
35363;DHT22;21463;47.480;8.214;2023-05-10T06:27:36;21.20;55.70
35363;DHT22;21463;47.480;8.214;2023-05-10T06:28:39;21.20;55.70
35363;DHT22;21463;47.480;8.214;2023-05-10T06:29:42;21.20;55.70
35363;DHT22;21463;47.480;8.214;2023-05-10T06:30:44;21.30;55.70
35363;DHT22;21463;47.480;8.214;2023-05-10T06:31:48;21.20;55.70
35363;DHT22;21463;47.480;8.214;2023-05-10T06:32:50;21.20;55.60
35363;DHT22;21463;47.480;8.214;2023-05-10T06:33:53;21.20;55.60
35363;DHT22;21463;47.480;8.214;2023-05-10T06:35:04;21.20;55.60
35363;DHT22;21463;47.480;8.214;2023-05-10T06:36:06;21.20;55.60
35363;DHT22;21463;47.480;8.214;2023-05-10T06:37:09;21.20;55.60
35363;DHT22;21463;47.480;8.214;2023-05-10T06:38:12;21.20;55.60
35363;DHT22;21463;47.480;8.214;2023-05-10T06:39:15;21.20;55.60
35363;DHT22;21463;47.480;8.214;2023-05-10T06:40:18;21.20;55.60
35363;DHT22;21463;47.480;8.214;2023-05-10T06:41:20;21.20;55.60
35363;DHT22;21463;47.480;8.214;2023-05-10T06:42:25;21.20;55.60
35363;DHT22;21463;47.480;8.214;2023-05-10T06:43:29;21.20;55.50
35363;DHT22;21463;47.480;8.214;2023-05-10T06:44:32;21.20;55.50
35363;DHT22;21463;47.480;8.214;2023-05-10T06:45:34;21.20;55.50
35363;DHT22;21463;47.480;8.214;2023-05-10T06:46:38;21.20;55.50
35363;DHT22;21463;47.480;8.214;2023-05-10T06:47:42;21.20;55.50
35363;DHT22;21463;47.480;8.214;2023-05-10T06:48:45;21.20;55.50
35363;DHT22;21463;47.480;8.214;2023-05-10T06:49:50;21.20;55.50
35363;DHT22;21463;47.480;8.214;2023-05-10T06:50:57;21.20;55.50
35363;DHT22;21463;47.480;8.214;2023-05-10T06:52:00;21.20;55.50
35363;DHT22;21463;47.480;8.214;2023-05-10T06:53:03;21.20;55.40
35363;DHT22;21463;47.480;8.214;2023-05-10T06:54:07;21.20;55.40
35363;DHT22;21463;47.480;8.214;2023-05-10T06:55:10;21.20;55.40
35363;DHT22;21463;47.480;8.214;2023-05-10T06:56:14;21.30;55.50
35363;DHT22;21463;47.480;8.214;2023-05-10T06:57:16;21.20;55.40
35363;DHT22;21463;47.480;8.214;2023-05-10T06:58:33;21.20;55.40
35363;DHT22;21463;47.480;8.214;2023-05-10T06:59:35;21.10;55.30
35363;DHT22;21463;47.480;8.214;2023-05-10T07:00:39;21.20;55.40
35363;DHT22;21463;47.480;8.214;2023-05-10T07:01:42;21.20;55.40
35363;DHT22;21463;47.480;8.214;2023-05-10T07:02:45;21.20;55.40
35363;DHT22;21463;47.480;8.214;2023-05-10T07:03:49;21.20;55.40
35363;DHT22;21463;47.480;8.214;2023-05-10T07:04:51;21.20;55.40
35363;DHT22;21463;47.480;8.214;2023-05-10T07:05:59;21.20;55.30
35363;DHT22;21463;47.480;8.214;2023-05-10T07:07:02;21.20;55.30
35363;DHT22;21463;47.480;8.214;2023-05-10T07:08:04;21.20;55.40
35363;DHT22;21463;47.480;8.214;2023-05-10T07:09:08;21.20;55.30
35363;DHT22;21463;47.480;8.214;2023-05-10T07:10:10;21.20;55.30
35363;DHT22;21463;47.480;8.214;2023-05-10T07:11:13;21.10;55.30
35363;DHT22;21463;47.480;8.214;2023-05-10T07:12:16;21.20;55.30
35363;DHT22;21463;47.480;8.214;2023-05-10T07:13:18;21.20;55.30
35363;DHT22;21463;47.480;8.214;2023-05-10T07:14:20;21.10;55.20
35363;DHT22;21463;47.480;8.214;2023-05-10T07:15:22;21.20;55.20